Time;durP1;ratioP1;P1;durP2;ratioP2;P2;SDS_P1;SDS_P2;PMS_P1;PMS_P2;Temp;Humidity;BMP_temperature;BMP_pressure;BME280_temperature;BME280_humidity;BME280_pressure;Samples;Min_cycle;Max_cycle;Signal;HPM_P1;HPM_P2
2022/10/21 00:00:34;;;;;;;45.38;22.05;;;10.50;99.90;;;;;;5031482;28;20038;-74
2022/10/21 00:03:00;;;;;;;45.05;23.10;;;10.50;99.90;;;;;;5033757;28;20038;-76
2022/10/21 00:05:25;;;;;;;45.25;23.27;;;10.40;99.90;;;;;;5035158;28;20045;-74
2022/10/21 00:07:51;;;;;;;49.20;24.70;;;10.40;99.90;;;;;;5036879;28;20038;-74
2022/10/21 00:10:17;;;;;;;42.30;23.50;;;10.50;99.90;;;;;;5035601;28;20029;-74
2022/10/21 00:12:43;;;;;;;43.55;22.80;;;10.50;99.90;;;;;;5035659;28;20046;-75
2022/10/21 00:15:10;;;;;;;39.05;22.13;;;10.40;99.90;;;;;;5035159;28;20038;-73
2022/10/21 00:17:37;;;;;;;46.22;23.85;;;10.50;99.90;;;;;;5034057;28;20113;-75
2022/10/21 00:20:04;;;;;;;52.03;25.48;;;10.50;99.90;;;;;;5034836;28;20035;-74
2022/10/21 00:22:30;;;;;;;45.75;23.20;;;10.60;99.90;;;;;;5033729;28;20022;-75
2022/10/21 00:24:55;;;;;;;41.42;23.58;;;10.60;99.90;;;;;;5034249;28;20060;-72
2022/10/21 00:27:21;;;;;;;44.00;22.35;;;10.60;99.90;;;;;;5035269;28;20041;-73
2022/10/21 00:29:49;;;;;;;43.85;23.75;;;10.60;99.90;;;;;;5035663;28;20018;-73
2022/10/21 00:32:15;;;;;;;48.80;23.48;;;10.60;99.90;;;;;;5035370;28;20036;-75
2022/10/21 00:34:42;;;;;;;48.30;24.25;;;10.70;99.90;;;;;;5035241;28;20033;-73
2022/10/21 00:37:09;;;;;;;48.88;25.23;;;10.70;99.90;;;;;;5033661;28;20021;-72
2022/10/21 00:39:35;;;;;;;48.85;24.40;;;10.70;99.90;;;;;;5034239;28;20029;-72
2022/10/21 00:42:01;;;;;;;43.00;22.60;;;10.70;99.90;;;;;;5016076;28;20032;-72
2022/10/21 00:44:27;;;;;;;42.58;23.38;;;10.70;99.90;;;;;;5034066;28;20428;-73
2022/10/21 00:46:58;;;;;;;52.25;22.85;;;10.80;99.90;;;;;;5034253;28;20040;-74
2022/10/21 00:49:37;;;;;;;50.75;25.27;;;10.70;99.90;;;;;;5033651;28;20030;-75
2022/10/21 00:52:06;;;;;;;48.28;25.13;;;10.80;99.90;;;;;;5033823;28;20026;-74
2022/10/21 00:54:33;;;;;;;45.63;24.45;;;10.80;99.90;;;;;;5033431;28;20021;-74
2022/10/21 00:56:59;;;;;;;52.25;24.60;;;10.80;99.90;;;;;;5033663;28;20033;-72
2022/10/21 00:59:30;;;;;;;44.85;23.65;;;10.80;99.90;;;;;;5033765;28;20133;-72
2022/10/21 01:01:55;;;;;;;47.90;24.85;;;10.80;99.90;;;;;;5033758;28;20032;-73
2022/10/21 01:04:21;;;;;;;49.80;24.33;;;10.80;99.90;;;;;;5033857;28;20057;-71
2022/10/21 01:06:47;;;;;;;46.25;22.75;;;10.80;99.90;;;;;;5033645;28;20081;-72
2022/10/21 01:09:14;;;;;;;45.17;24.35;;;10.80;99.90;;;;;;5031770;28;20026;-73
2022/10/21 01:11:46;;;;;;;51.20;24.35;;;10.80;99.90;;;;;;5032818;28;20032;-72
2022/10/21 01:14:23;;;;;;;43.90;24.15;;;10.80;99.90;;;;;;5015173;28;20065;-73
2022/10/21 01:16:53;;;;;;;50.45;23.83;;;10.80;99.90;;;;;;5033362;28;20052;-71
2022/10/21 01:19:41;;;;;;;42.47;23.65;;;10.80;99.90;;;;;;5032643;28;20093;-71
2022/10/21 01:22:18;;;;;;;49.42;23.90;;;10.80;99.90;;;;;;5033636;28;20022;-73
2022/10/21 01:25:02;;;;;;;49.05;24.40;;;10.80;99.90;;;;;;5032671;28;20030;-72
2022/10/21 01:27:55;;;;;;;45.15;23.15;;;10.70;99.90;;;;;;5032754;28;20042;-72
2022/10/21 01:30:59;;;;;;;46.22;23.05;;;10.80;99.90;;;;;;5032465;28;20065;-73
2022/10/21 01:33:40;;;;;;;43.20;24.17;;;10.70;99.90;;;;;;4997285;28;20041;-73
2022/10/21 01:36:44;;;;;;;57.72;24.70;;;10.70;99.90;;;;;;5033065;28;20156;-73
2022/10/21 01:39:36;;;;;;;41.42;23.30;;;10.70;99.90;;;;;;4998808;28;20460;-74
2022/10/21 01:42:02;;;;;;;47.75;24.58;;;10.70;99.90;;;;;;5032863;28;20026;-73
2022/10/21 01:44:34;;;;;;;52.92;25.05;;;10.60;99.90;;;;;;5033771;28;20104;-74
2022/10/21 01:47:06;;;;;;;45.80;23.98;;;10.60;99.90;;;;;;5031264;28;20042;-73
2022/10/21 01:49:39;;;;;;;50.58;24.10;;;10.70;99.90;;;;;;5032534;28;20052;-74
2022/10/21 01:52:06;;;;;;;47.45;25.45;;;10.70;99.90;;;;;;5032501;28;20470;-73
2022/10/21 01:54:37;;;;;;;48.75;24.08;;;10.70;99.90;;;;;;5032656;28;20036;-73
2022/10/21 01:57:05;;;;;;;48.35;24.17;;;10.70;99.90;;;;;;5032886;28;20018;-74
2022/10/21 01:59:34;;;;;;;52.88;25.00;;;10.70;99.90;;;;;;5031755;28;20030;-74
2022/10/21 02:02:03;;;;;;;48.08;24.65;;;10.70;99.90;;;;;;5032125;28;20017;-75
2022/10/21 02:04:32;;;;;;;55.22;24.52;;;10.70;99.90;;;;;;5032186;28;20021;-74
2022/10/21 02:06:58;;;;;;;48.60;24.42;;;10.70;99.90;;;;;;5031723;28;20042;-74
2022/10/21 02:09:24;;;;;;;52.40;26.88;;;10.70;99.90;;;;;;5032370;28;20030;-73
2022/10/21 02:11:52;;;;;;;54.88;25.38;;;10.80;99.90;;;;;;5032476;28;20033;-74
2022/10/21 02:14:40;;;;;;;47.30;25.63;;;10.70;99.90;;;;;;5031594;28;20022;-74
2022/10/21 02:17:09;;;;;;;45.95;23.00;;;10.70;99.90;;;;;;5032860;28;20071;-74
2022/10/21 02:19:35;;;;;;;46.33;24.20;;;10.70;99.90;;;;;;5032468;28;20049;-74
2022/10/21 02:22:04;;;;;;;52.72;23.75;;;10.70;99.90;;;;;;5032134;28;20489;-73
2022/10/21 02:24:53;;;;;;;47.13;24.23;;;10.70;99.90;;;;;;5031239;28;20119;-73
2022/10/21 02:27:20;;;;;;;45.08;23.70;;;10.70;99.90;;;;;;5032205;28;20044;-73
2022/10/21 02:29:48;;;;;;;52.08;26.35;;;10.70;99.90;;;;;;5023086;28;20036;-74
2022/10/21 02:32:35;;;;;;;48.33;24.00;;;10.70;99.90;;;;;;5031785;28;20029;-75
2022/10/21 02:35:29;;;;;;;44.53;23.13;;;10.70;99.90;;;;;;5031435;28;20057;-75
2022/10/21 02:38:12;;;;;;;42.70;22.05;;;10.70;99.90;;;;;;5007514;28;20060;-74
2022/10/21 02:40:44;;;;;;;43.25;22.05;;;10.70;99.90;;;;;;5031730;28;20041;-74
2022/10/21 02:43:20;;;;;;;50.63;25.33;;;10.70;99.90;;;;;;5032010;28;20037;-73
2022/10/21 02:45:54;;;;;;;42.97;22.13;;;10.70;99.90;;;;;;5111041;27;20357;-73
2022/10/21 02:48:20;;;;;;;49.33;22.98;;;10.70;99.90;;;;;;5076630;28;20036;-74
2022/10/21 02:50:45;;;;;;;46.55;24.10;;;10.70;99.90;;;;;;5077946;28;20037;-73
2022/10/21 02:53:12;;;;;;;46.53;23.27;;;10.70;99.90;;;;;;5078269;28;20028;-73
2022/10/21 02:55:38;;;;;;;54.67;25.42;;;10.70;99.90;;;;;;5077739;28;20032;-74
2022/10/21 02:58:04;;;;;;;51.60;23.92;;;10.70;99.90;;;;;;5077823;28;20143;-73
2022/10/21 03:00:30;;;;;;;45.75;23.73;;;10.70;99.90;;;;;;5078096;28;20031;-74
2022/10/21 03:02:55;;;;;;;49.35;24.63;;;10.70;99.90;;;;;;5077586;28;20380;-73
2022/10/21 03:05:21;;;;;;;39.38;21.40;;;10.70;99.90;;;;;;5076465;28;20033;-74
2022/10/21 03:07:46;;;;;;;49.35;24.38;;;10.70;99.90;;;;;;5078037;28;20037;-73
2022/10/21 03:10:12;;;;;;;47.30;22.42;;;10.70;99.90;;;;;;5077585;28;20151;-74
2022/10/21 03:12:38;;;;;;;48.35;24.73;;;10.70;99.90;;;;;;5077490;28;20025;-73
2022/10/21 03:15:04;;;;;;;47.33;24.88;;;10.70;99.90;;;;;;5077701;28;20739;-73
2022/10/21 03:17:29;;;;;;;43.75;23.33;;;10.70;99.90;;;;;;5075339;28;20025;-75
2022/10/21 03:19:55;;;;;;;49.92;21.92;;;10.70;99.90;;;;;;5077646;28;20040;-73
2022/10/21 03:22:20;;;;;;;48.10;23.67;;;10.70;99.90;;;;;;5077569;28;20032;-74
2022/10/21 03:24:46;;;;;;;40.92;21.10;;;10.70;99.90;;;;;;5076917;28;20131;-74
2022/10/21 03:27:12;;;;;;;37.20;20.63;;;10.70;99.90;;;;;;5077491;28;20025;-73
2022/10/21 03:29:37;;;;;;;49.45;21.83;;;10.60;99.90;;;;;;5077547;28;20016;-74
2022/10/21 03:32:03;;;;;;;43.22;19.98;;;10.60;99.90;;;;;;5077232;28;20055;-73
2022/10/21 03:34:29;;;;;;;47.70;22.35;;;10.60;99.90;;;;;;5077648;28;20039;-73
2022/10/21 03:36:54;;;;;;;36.40;19.80;;;10.60;99.90;;;;;;5077027;28;20039;-74
2022/10/21 03:39:20;;;;;;;40.22;21.58;;;10.60;99.90;;;;;;5076957;28;20028;-73
2022/10/21 03:41:45;;;;;;;43.03;22.58;;;10.60;99.90;;;;;;5077054;28;20477;-73
2022/10/21 03:44:11;;;;;;;46.55;22.45;;;10.60;99.90;;;;;;5076651;28;20052;-73
2022/10/21 03:46:37;;;;;;;48.58;22.58;;;10.70;99.90;;;;;;5077235;28;20017;-74
2022/10/21 03:49:02;;;;;;;44.25;20.83;;;10.60;99.90;;;;;;5077191;28;20090;-73
2022/10/21 03:51:28;;;;;;;38.17;20.90;;;10.60;99.90;;;;;;5076625;28;20020;-73
2022/10/21 03:53:53;;;;;;;40.38;21.70;;;10.60;99.90;;;;;;5074471;28;20032;-74
2022/10/21 03:56:19;;;;;;;44.22;20.38;;;10.60;99.90;;;;;;5067978;28;20025;-72
2022/10/21 03:58:44;;;;;;;42.92;21.60;;;10.60;99.90;;;;;;5062327;28;20152;-72
2022/10/21 04:01:12;;;;;;;43.45;21.80;;;10.60;99.90;;;;;;5063666;28;20452;-74
2022/10/21 04:03:37;;;;;;;46.75;23.63;;;10.60;99.90;;;;;;5062683;28;20033;-73
2022/10/21 04:06:03;;;;;;;46.58;25.05;;;10.60;99.90;;;;;;5061490;28;20025;-74
2022/10/21 04:08:29;;;;;;;42.90;20.63;;;10.60;99.90;;;;;;5062460;28;20512;-73
2022/10/21 04:10:57;;;;;;;52.45;24.15;;;10.60;99.90;;;;;;5061687;28;20040;-74
2022/10/21 04:13:23;;;;;;;51.38;24.65;;;10.60;99.90;;;;;;5062480;28;20463;-73
2022/10/21 04:15:48;;;;;;;48.50;24.27;;;10.60;99.90;;;;;;5063297;28;20017;-72
2022/10/21 04:18:14;;;;;;;51.95;23.30;;;10.60;99.90;;;;;;5063528;28;20027;-74
2022/10/21 04:20:40;;;;;;;38.85;21.02;;;10.70;99.90;;;;;;5062886;28;20024;-72
2022/10/21 04:23:05;;;;;;;47.40;23.83;;;10.70;99.90;;;;;;5063431;28;20024;-73
2022/10/21 04:25:31;;;;;;;44.13;22.35;;;10.60;99.90;;;;;;5063095;28;20087;-73
2022/10/21 04:27:57;;;;;;;46.80;22.85;;;10.60;99.90;;;;;;5061845;28;20021;-73
2022/10/21 04:30:22;;;;;;;43.22;21.35;;;10.60;99.90;;;;;;5060753;28;20068;-72
2022/10/21 04:32:49;;;;;;;50.72;21.52;;;10.60;99.90;;;;;;5063414;28;20124;-73
2022/10/21 04:35:17;;;;;;;38.42;21.13;;;10.60;99.90;;;;;;5062665;28;20535;-73
2022/10/21 04:37:43;;;;;;;46.58;20.70;;;10.60;99.90;;;;;;5062962;28;20025;-73
2022/10/21 04:40:09;;;;;;;40.90;19.85;;;10.60;99.90;;;;;;5062828;28;20025;-73
2022/10/21 04:42:34;;;;;;;40.10;20.08;;;10.60;99.90;;;;;;5060920;28;20422;-73
2022/10/21 04:45:00;;;;;;;39.00;21.40;;;10.60;99.90;;;;;;5062388;28;20067;-71
2022/10/21 04:47:26;;;;;;;35.58;19.58;;;10.60;99.90;;;;;;5062353;28;20080;-73
2022/10/21 04:49:51;;;;;;;43.60;20.15;;;10.60;99.90;;;;;;5061118;28;20024;-71
2022/10/21 04:52:17;;;;;;;37.90;19.95;;;10.60;99.90;;;;;;5054517;28;20043;-73
2022/10/21 04:54:43;;;;;;;40.38;21.85;;;10.70;99.90;;;;;;5060030;28;20078;-72
2022/10/21 04:57:08;;;;;;;39.92;20.90;;;10.70;99.90;;;;;;5062362;28;20227;-73
2022/10/21 04:59:34;;;;;;;46.50;22.13;;;10.70;99.90;;;;;;5061691;28;20021;-73
2022/10/21 05:01:59;;;;;;;47.33;23.00;;;10.80;99.90;;;;;;5060950;28;20072;-73
2022/10/21 05:04:25;;;;;;;49.28;23.90;;;10.80;99.90;;;;;;5054707;28;20041;-72
2022/10/21 05:06:51;;;;;;;52.38;25.13;;;10.80;99.90;;;;;;5055475;28;20060;-74
2022/10/21 05:09:16;;;;;;;47.63;24.17;;;10.80;99.90;;;;;;5057675;28;20025;-74
2022/10/21 05:11:42;;;;;;;41.45;22.30;;;10.90;99.90;;;;;;5059254;28;20033;-74
2022/10/21 05:14:07;;;;;;;41.22;23.33;;;10.90;99.90;;;;;;5057402;28;20047;-73
2022/10/21 05:16:33;;;;;;;45.60;23.55;;;10.90;99.90;;;;;;5053994;28;20093;-73
2022/10/21 05:18:59;;;;;;;49.67;23.45;;;11.00;99.90;;;;;;5060763;28;20029;-72
2022/10/21 05:21:24;;;;;;;58.70;25.65;;;10.90;99.90;;;;;;5060443;28;20052;-72
2022/10/21 05:23:50;;;;;;;53.10;25.17;;;11.00;99.90;;;;;;5061171;28;20048;-73
2022/10/21 05:26:16;;;;;;;53.15;25.52;;;11.00;99.90;;;;;;5060819;28;20033;-73
2022/10/21 05:28:42;;;;;;;45.42;24.75;;;11.00;99.90;;;;;;5061856;28;20124;-74
2022/10/21 05:31:07;;;;;;;47.25;25.17;;;11.00;99.90;;;;;;5059493;28;20029;-74
2022/10/21 05:33:33;;;;;;;48.33;23.35;;;11.00;99.90;;;;;;5061219;28;20059;-72
2022/10/21 05:36:01;;;;;;;48.63;23.58;;;11.10;99.90;;;;;;5061731;28;20375;-73
2022/10/21 05:38:28;;;;;;;48.72;23.25;;;11.10;99.90;;;;;;5060861;28;20032;-72
2022/10/21 05:40:54;;;;;;;51.70;25.27;;;11.00;99.90;;;;;;5058423;28;20032;-73
2022/10/21 05:43:19;;;;;;;47.08;23.38;;;11.10;99.90;;;;;;5053724;28;20056;-72
2022/10/21 05:45:45;;;;;;;49.78;23.52;;;11.10;99.90;;;;;;5052491;28;20135;-73
2022/10/21 05:48:11;;;;;;;42.90;23.13;;;11.10;99.90;;;;;;5053647;28;20033;-73
2022/10/21 05:50:36;;;;;;;47.22;24.08;;;11.10;99.90;;;;;;5061205;28;20021;-72
2022/10/21 05:53:02;;;;;;;50.63;23.73;;;11.10;99.90;;;;;;5061272;28;20081;-73
2022/10/21 05:55:28;;;;;;;52.72;24.98;;;11.10;99.90;;;;;;5060657;28;20488;-73
2022/10/21 05:57:53;;;;;;;54.22;24.13;;;11.00;99.90;;;;;;5059789;28;20079;-73
2022/10/21 06:00:19;;;;;;;45.00;25.23;;;11.00;99.90;;;;;;5059923;28;20064;-73
2022/10/21 06:02:45;;;;;;;50.17;22.88;;;11.00;99.90;;;;;;5060890;28;20048;-74
2022/10/21 06:05:10;;;;;;;45.13;22.67;;;11.00;99.90;;;;;;5059865;28;20029;-73
2022/10/21 06:07:36;;;;;;;41.50;22.70;;;11.10;99.90;;;;;;5059085;28;20025;-72
2022/10/21 06:10:02;;;;;;;48.45;22.48;;;11.10;99.90;;;;;;5058679;28;20036;-73
2022/10/21 06:12:28;;;;;;;49.40;25.48;;;11.10;99.90;;;;;;5059362;28;20033;-72
2022/10/21 06:14:54;;;;;;;40.20;21.05;;;11.10;99.90;;;;;;5060089;28;20021;-73
2022/10/21 06:17:20;;;;;;;49.70;23.60;;;11.20;99.90;;;;;;5059027;28;20017;-74
2022/10/21 06:19:45;;;;;;;49.17;23.63;;;11.10;99.90;;;;;;5053996;28;20039;-73
2022/10/21 06:22:11;;;;;;;51.60;24.48;;;11.20;99.90;;;;;;5058869;28;20429;-73
2022/10/21 06:24:37;;;;;;;56.13;25.08;;;11.20;99.90;;;;;;5059262;28;20041;-73
2022/10/21 06:27:03;;;;;;;50.55;25.98;;;11.30;99.90;;;;;;5060492;28;20021;-75
2022/10/21 06:29:29;;;;;;;54.92;24.88;;;11.30;99.90;;;;;;5060529;28;20040;-73
2022/10/21 06:31:54;;;;;;;48.22;24.75;;;11.30;99.90;;;;;;5060286;28;20052;-71
2022/10/21 06:34:20;;;;;;;56.60;26.15;;;11.30;99.90;;;;;;5056049;28;20021;-71
2022/10/21 06:36:46;;;;;;;45.80;23.48;;;11.40;99.90;;;;;;5053759;28;20139;-72
2022/10/21 06:39:11;;;;;;;55.00;25.60;;;11.40;99.90;;;;;;5055967;28;20060;-73
2022/10/21 06:41:37;;;;;;;52.58;25.55;;;11.40;99.90;;;;;;5055950;28;20479;-72
2022/10/21 06:44:02;;;;;;;49.05;23.67;;;11.40;99.90;;;;;;5057537;28;20060;-71
2022/10/21 06:46:28;;;;;;;44.00;24.92;;;11.40;99.90;;;;;;5059810;28;20469;-72
2022/10/21 06:48:54;;;;;;;57.30;26.75;;;11.50;99.90;;;;;;5058182;28;20029;-71
2022/10/21 06:51:21;;;;;;;48.70;25.50;;;11.50;99.90;;;;;;5059506;28;20112;-72
2022/10/21 06:53:52;;;;;;;53.75;25.33;;;11.50;99.90;;;;;;5058137;28;20043;-73
2022/10/21 06:56:21;;;;;;;51.33;23.67;;;11.60;99.90;;;;;;5058565;28;20045;-74
2022/10/21 06:58:48;;;;;;;53.33;25.25;;;11.60;99.90;;;;;;5056577;28;21036;-72
2022/10/21 07:01:23;;;;;;;42.45;23.42;;;11.60;99.90;;;;;;5058761;28;20028;-72
2022/10/21 07:03:49;;;;;;;50.85;26.27;;;11.60;99.90;;;;;;5058382;28;21353;-72
2022/10/21 07:06:16;;;;;;;52.85;25.50;;;11.70;99.90;;;;;;5055948;28;20025;-73
2022/10/21 07:08:42;;;;;;;50.83;24.85;;;11.70;99.90;;;;;;5058145;28;20059;-72
2022/10/21 07:11:09;;;;;;;63.30;27.35;;;11.70;99.90;;;;;;5059144;28;20039;-72
2022/10/21 07:13:35;;;;;;;59.67;25.40;;;11.70;99.90;;;;;;5056322;28;20120;-71
2022/10/21 07:16:02;;;;;;;51.42;24.83;;;11.70;99.90;;;;;;5060476;28;20033;-71
2022/10/21 07:18:28;;;;;;;52.97;24.77;;;11.70;99.90;;;;;;5059545;28;20082;-72
2022/10/21 07:20:53;;;;;;;51.10;24.65;;;11.70;99.90;;;;;;5056801;28;20061;-73
2022/10/21 07:23:19;;;;;;;51.85;25.23;;;11.70;99.90;;;;;;5060309;28;20036;-74
2022/10/21 07:25:45;;;;;;;49.90;24.48;;;11.80;99.90;;;;;;5058211;28;20045;-72
2022/10/21 07:28:10;;;;;;;52.88;25.42;;;11.80;99.90;;;;;;5057536;28;20040;-73
2022/10/21 07:30:43;;;;;;;56.33;25.40;;;11.80;99.90;;;;;;5061099;28;20488;-72
2022/10/21 07:33:09;;;;;;;50.28;25.38;;;11.90;99.90;;;;;;5062587;28;20032;-72
2022/10/21 07:35:35;;;;;;;45.78;23.98;;;12.00;99.90;;;;;;5063146;28;20043;-71
2022/10/21 07:38:01;;;;;;;59.65;26.30;;;12.00;99.90;;;;;;5063338;28;20100;-72
2022/10/21 07:40:27;;;;;;;49.40;25.67;;;12.10;99.90;;;;;;5057091;28;20092;-72
2022/10/21 07:42:54;;;;;;;53.22;25.70;;;12.20;99.90;;;;;;5060804;28;20033;-71
2022/10/21 07:45:19;;;;;;;51.15;24.67;;;12.20;99.90;;;;;;5060583;28;20080;-73
2022/10/21 07:47:46;;;;;;;49.08;23.50;;;12.30;99.90;;;;;;5060723;28;20025;-74
2022/10/21 07:50:12;;;;;;;42.28;23.40;;;12.40;99.90;;;;;;5061751;28;20060;-73
2022/10/21 07:52:44;;;;;;;45.53;24.02;;;12.50;99.90;;;;;;5062054;28;20029;-73
2022/10/21 07:55:15;;;;;;;44.20;22.40;;;12.50;99.90;;;;;;5059684;28;20116;-74
2022/10/21 07:57:41;;;;;;;46.30;23.58;;;12.60;99.90;;;;;;5060603;28;20116;-74
2022/10/21 08:00:08;;;;;;;48.38;22.25;;;12.70;99.90;;;;;;5059031;28;20021;-74
2022/10/21 08:02:35;;;;;;;36.50;21.05;;;12.80;99.90;;;;;;5062243;28;20025;-74
2022/10/21 08:05:00;;;;;;;40.13;21.23;;;12.80;99.90;;;;;;5062461;28;20170;-74
2022/10/21 08:07:26;;;;;;;43.95;21.08;;;12.90;99.90;;;;;;5061398;28;20037;-73
2022/10/21 08:09:52;;;;;;;41.85;21.48;;;12.90;99.90;;;;;;5059342;28;20017;-74
2022/10/21 08:12:17;;;;;;;42.30;19.98;;;13.00;99.90;;;;;;5059708;28;20033;-74
2022/10/21 08:14:43;;;;;;;36.15;20.02;;;13.10;99.90;;;;;;5062006;28;20021;-73
2022/10/21 08:17:09;;;;;;;34.72;20.63;;;13.20;99.90;;;;;;5062110;28;20028;-74
2022/10/21 08:19:34;;;;;;;40.15;21.05;;;13.30;99.90;;;;;;5063503;28;20088;-73
2022/10/21 08:22:00;;;;;;;34.70;20.05;;;13.40;99.90;;;;;;5063100;28;20040;-73
2022/10/21 08:24:27;;;;;;;33.17;20.13;;;13.50;99.90;;;;;;5061537;28;20040;-73
2022/10/21 08:26:53;;;;;;;39.05;20.90;;;13.60;99.90;;;;;;5061858;28;20047;-73
2022/10/21 08:29:18;;;;;;;42.45;21.20;;;13.70;99.90;;;;;;5060404;28;20028;-74
2022/10/21 08:31:47;;;;;;;42.80;21.33;;;13.70;99.90;;;;;;5059598;28;20023;-73
2022/10/21 08:34:12;;;;;;;40.47;21.52;;;13.80;99.90;;;;;;5060048;28;20025;-74
2022/10/21 08:36:38;;;;;;;38.60;20.70;;;13.90;99.90;;;;;;5062932;28;20580;-74
2022/10/21 08:39:04;;;;;;;41.35;19.20;;;14.00;99.90;;;;;;5063006;28;20044;-74
2022/10/21 08:41:30;;;;;;;33.28;19.35;;;14.10;99.90;;;;;;5060308;28;20021;-73
2022/10/21 08:44:09;;;;;;;40.33;20.10;;;14.10;99.90;;;;;;5061843;28;20098;-73
2022/10/21 08:46:47;;;;;;;34.35;20.15;;;14.10;99.90;;;;;;5062888;28;20021;-74
2022/10/21 08:49:44;;;;;;;38.70;19.85;;;14.20;99.90;;;;;;5062644;28;20366;-74
2022/10/21 08:52:20;;;;;;;38.22;18.67;;;14.30;99.90;;;;;;5061230;28;20048;-72
2022/10/21 08:55:00;;;;;;;32.78;18.08;;;14.40;99.90;;;;;;5060834;28;20069;-75
2022/10/21 08:57:26;;;;;;;32.80;17.50;;;14.50;99.90;;;;;;5060724;28;20521;-74
2022/10/21 08:59:54;;;;;;;32.50;18.27;;;14.50;99.90;;;;;;5061404;28;20040;-76
2022/10/21 09:02:32;;;;;;;34.55;18.42;;;14.50;99.90;;;;;;5062775;28;20051;-74
2022/10/21 09:05:28;;;;;;;29.80;17.75;;;14.50;99.90;;;;;;5060260;28;20068;-73
2022/10/21 09:08:11;;;;;;;30.25;17.70;;;14.60;99.90;;;;;;5060489;28;20045;-74
2022/10/21 09:10:59;;;;;;;36.15;17.92;;;14.70;99.90;;;;;;5061292;28;20039;-74
2022/10/21 09:14:03;;;;;;;37.40;17.45;;;14.70;99.90;;;;;;5060868;28;20033;-78
2022/10/21 09:16:32;;;;;;;32.50;18.13;;;14.70;99.90;;;;;;5061222;28;20052;-75
2022/10/21 09:19:22;;;;;;;35.00;18.52;;;14.70;99.90;;;;;;5061467;28;20606;-74
2022/10/21 09:22:16;;;;;;;32.47;17.95;;;14.80;99.90;;;;;;5060409;28;20044;-74
2022/10/21 09:24:51;;;;;;;36.28;17.83;;;14.80;99.90;;;;;;5058762;28;20060;-75
2022/10/21 09:27:18;;;;;;;32.83;17.88;;;14.80;99.90;;;;;;5053562;28;20033;-75
2022/10/21 09:29:47;;;;;;;32.83;17.42;;;14.90;99.90;;;;;;5061399;28;20032;-76
2022/10/21 09:32:14;;;;;;;29.33;16.65;;;15.00;99.90;;;;;;5053222;28;20535;-76
2022/10/21 09:34:50;;;;;;;32.42;17.30;;;15.10;99.90;;;;;;5061492;28;20064;-76
2022/10/21 09:37:31;;;;;;;30.63;16.05;;;15.00;99.90;;;;;;5060984;28;20025;-76
2022/10/21 09:40:28;;;;;;;36.90;17.15;;;15.10;99.90;;;;;;5059387;28;20021;-79
2022/10/21 09:42:58;;;;;;;29.58;16.17;;;15.10;99.90;;;;;;5060959;28;20033;-77
2022/10/21 09:45:37;;;;;;;28.67;16.70;;;15.20;99.90;;;;;;5052475;28;20049;-76
2022/10/21 09:48:18;;;;;;;31.85;15.50;;;15.40;99.90;;;;;;5056157;28;20477;-78
2022/10/21 09:50:57;;;;;;;30.73;16.80;;;15.50;99.90;;;;;;5058632;28;20037;-77
2022/10/21 09:53:36;;;;;;;32.90;16.40;;;15.60;99.90;;;;;;5060641;28;20377;-76
2022/10/21 09:56:15;;;;;;;31.25;15.75;;;15.80;99.90;;;;;;5059360;28;20608;-78
2022/10/21 09:59:06;;;;;;;24.38;14.80;;;16.00;99.90;;;;;;5057059;28;20031;-79
2022/10/21 10:01:32;;;;;;;31.95;15.65;;;16.20;99.90;;;;;;5056388;28;20044;-76
2022/10/21 10:03:58;;;;;;;33.97;15.52;;;16.40;99.90;;;;;;5057906;28;20041;-75
2022/10/21 10:06:30;;;;;;;27.50;14.07;;;16.50;99.90;;;;;;5059568;28;20025;-70
2022/10/21 10:09:31;;;;;;;28.33;14.30;;;16.50;99.90;;;;;;5060510;28;20020;-78
2022/10/21 10:12:04;;;;;;;29.50;13.52;;;16.70;99.90;;;;;;5059885;28;20033;-77
2022/10/21 10:14:35;;;;;;;25.35;12.93;;;16.90;99.90;;;;;;5059105;28;20032;-70
2022/10/21 10:17:20;;;;;;;23.95;12.98;;;16.90;99.90;;;;;;5052926;28;20477;-75
2022/10/21 10:20:19;;;;;;;25.85;12.00;;;17.00;99.90;;;;;;5056030;28;20057;-77
2022/10/21 10:23:07;;;;;;;25.75;12.95;;;16.90;99.90;;;;;;5044765;28;20112;-77
2022/10/21 10:25:36;;;;;;;21.33;12.43;;;17.00;99.90;;;;;;5053335;28;20132;-77
2022/10/21 10:28:08;;;;;;;25.38;12.07;;;17.00;99.90;;;;;;5052357;28;20041;-78
2022/10/21 10:30:40;;;;;;;21.55;12.05;;;17.10;99.90;;;;;;5057284;28;20075;-77
2022/10/21 10:33:15;;;;;;;22.67;12.40;;;17.10;99.90;;;;;;5058957;28;20036;-75
2022/10/21 10:35:53;;;;;;;24.13;12.98;;;17.10;99.90;;;;;;5059757;28;20041;-74
2022/10/21 10:38:41;;;;;;;18.83;9.93;;;17.20;99.90;;;;;;5060133;28;20047;-71
2022/10/21 10:41:08;;;;;;;20.77;11.30;;;17.10;99.90;;;;;;5057978;28;20047;-75
2022/10/21 10:43:46;;;;;;;21.38;11.18;;;17.10;99.90;;;;;;5057529;28;20368;-81
2022/10/21 10:46:33;;;;;;;24.23;11.85;;;17.20;99.90;;;;;;5057383;28;20044;-81
2022/10/21 10:49:18;;;;;;;17.80;10.18;;;17.20;99.90;;;;;;5056928;28;20481;-75
2022/10/21 10:51:47;;;;;;;;;;;17.30;99.90;;;;;;5056365;28;20041;-83
2022/10/21 10:54:23;;;;;;;19.17;10.65;;;17.40;99.90;;;;;;5057399;28;19905;-75
2022/10/21 10:56:55;;;;;;;20.02;10.52;;;17.50;99.90;;;;;;5058897;28;20039;-73
2022/10/21 10:59:42;;;;;;;24.35;11.45;;;17.60;99.90;;;;;;5060217;28;20037;-77
2022/10/21 11:02:08;;;;;;;22.88;10.88;;;17.60;99.90;;;;;;5057026;28;20037;-85
2022/10/21 11:04:52;;;;;;;21.35;11.68;;;17.70;99.90;;;;;;5058436;28;20068;-75
2022/10/21 11:07:38;;;;;;;20.45;10.55;;;17.80;99.90;;;;;;5063077;28;20017;-76
2022/10/21 11:10:24;;;;;;;20.23;10.43;;;17.90;99.90;;;;;;5062412;28;20032;-80
2022/10/21 11:12:50;;;;;;;23.58;10.25;;;17.90;99.90;;;;;;5062449;28;20029;-80
2022/10/21 11:15:16;;;;;;;20.10;10.25;;;17.80;99.90;;;;;;5062941;28;20056;-78
2022/10/21 11:18:00;;;;;;;17.55;9.45;;;17.90;99.90;;;;;;5065143;28;20029;-83
2022/10/21 11:20:45;;;;;;;18.38;9.27;;;18.00;99.90;;;;;;5063614;28;20526;-78
2022/10/21 11:23:35;;;;;;;17.33;9.43;;;18.20;99.90;;;;;;5066320;28;20037;-77
2022/10/21 11:26:27;;;;;;;15.65;8.88;;;18.50;99.90;;;;;;5060428;28;20597;-72
2022/10/21 11:29:30;;;;;;;14.15;8.07;;;18.60;99.90;;;;;;5062901;28;20021;-77
2022/10/21 11:32:28;;;;;;;14.23;7.97;;;18.80;99.90;;;;;;5063289;28;20044;-80
2022/10/21 11:35:18;;;;;;;21.02;7.45;;;18.90;99.90;;;;;;5073110;28;20041;-77
2022/10/21 11:38:28;;;;;;;15.45;7.88;;;19.00;99.90;;;;;;5063129;28;20041;-78
2022/10/21 11:41:02;;;;;;;20.20;7.70;;;19.10;99.90;;;;;;5061627;28;20139;-76
2022/10/21 11:43:48;;;;;;;14.65;8.30;;;19.10;99.90;;;;;;5044897;28;20037;-75
2022/10/21 11:46:31;;;;;;;13.55;7.53;;;19.00;99.90;;;;;;5062904;28;20094;-73
2022/10/21 11:49:23;;;;;;;13.88;7.43;;;18.80;99.90;;;;;;5061101;28;20115;-73
2022/10/21 11:52:07;;;;;;;15.13;7.40;;;18.70;99.90;;;;;;5062518;28;20055;-83
2022/10/21 11:54:32;;;;;;;16.25;8.30;;;18.60;99.90;;;;;;5062406;28;20029;-81
2022/10/21 11:57:04;;;;;;;14.45;8.27;;;18.60;99.90;;;;;;5062508;28;20086;-74
2022/10/21 11:59:38;;;;;;;11.93;7.18;;;18.70;99.90;;;;;;5062900;28;20029;-79
2022/10/21 12:02:10;;;;;;;12.07;6.93;;;18.80;99.90;;;;;;5060920;28;20169;-84
2022/10/21 12:04:44;;;;;;;10.93;6.80;;;18.90;99.90;;;;;;5061520;28;20064;-78
2022/10/21 12:07:10;;;;;;;16.63;7.35;;;19.20;99.90;;;;;;5062907;28;20025;-77
2022/10/21 12:09:54;;;;;;;16.20;6.20;;;19.40;99.90;;;;;;5064681;28;20028;-74
2022/10/21 12:12:31;;;;;;;13.03;6.93;;;19.60;99.90;;;;;;5063141;28;20040;-83
2022/10/21 12:15:01;;;;;;;9.90;6.20;;;19.70;99.90;;;;;;5063843;28;20074;-77
2022/10/21 12:17:32;;;;;;;9.60;6.05;;;19.80;99.90;;;;;;5062610;28;20017;-85
2022/10/21 12:20:01;;;;;;;15.15;6.78;;;19.90;99.90;;;;;;5061551;28;20033;-77
2022/10/21 12:22:29;;;;;;;12.88;7.30;;;19.90;99.90;;;;;;5061331;28;20025;-80
2022/10/21 12:25:07;;;;;;;14.85;7.13;;;19.90;99.90;;;;;;5055830;28;20083;-82
2022/10/21 12:27:54;;;;;;;13.48;6.70;;;19.90;99.90;;;;;;5063238;28;20063;-74
2022/10/21 12:30:39;;;;;;;14.75;6.65;;;19.70;99.90;;;;;;5063790;28;20097;-75
2022/10/21 12:33:27;;;;;;;9.75;6.00;;;19.50;99.90;;;;;;5063397;28;20020;-81
2022/10/21 12:35:56;;;;;;;16.35;7.03;;;19.20;99.90;;;;;;5061491;28;20095;-77
2022/10/21 12:38:43;;;;;;;18.45;6.72;;;19.00;99.90;;;;;;5062278;28;20021;-84
2022/10/21 12:41:33;;;;;;;18.10;7.85;;;18.80;99.90;;;;;;5059142;28;20041;-81
2022/10/21 12:44:01;;;;;;;13.73;7.47;;;18.60;99.90;;;;;;5061137;28;20100;-80
2022/10/21 12:46:54;;;;;;;12.50;6.30;;;18.50;99.90;;;;;;5058915;28;20461;-78
2022/10/21 12:49:23;;;;;;;10.35;6.07;;;18.60;99.90;;;;;;5061283;28;20204;-78